メインページ
METAR-TAF:

METAR-TAF

空港 :

Fort Knox, ケンタッキー州, アメリカ合衆国

緯度: 37-54N, 経度: 085-58W, 海抜: 230m

現時点の気象観測

当レポートは11分前の17:11(UTC)に作成
の風 11kt
気温 22°C
湿度 41%
気圧 1026 hPa
視程: 16.1km
晴天

METAR: KFTK 311711Z AUTO 01011KT 10SM CLR 22/08 A3029 RMK AO2 WSHFT 08 SLP257

時間: 13:22 (17:22 UTC)

予報

当レポートは22分前の17:00(UTC)に作成
予報は31日の 17時(UTC)から 01日の 23時(UTC)まで有効
変向風 6kt
視程10km以上
晴天
31日の 17時(UTC)から 31日の 19時(UTC)まで一時的に
北/北東の風 10kt、最大15ktの突風を伴う

TAF: KFTK 311700Z 3117/0123 VRB06KT 9999 SKC QNH3017INS TEMPO 3117/3119 02010G15KT TX23/3120Z TN13/0111Z

4,000以上の空港の気象観測と天気予報(METAR報とTAF報)

利用可能な観測所は地図上に黄色い丸と赤い丸で示す。

丸の上にカーソルを重ねると観測所名を参照できる。

次にクリックすると気象観測と天気予報を参照できる。

マップの切り替え:黒色「×」印の緑ボタンをクリックして拡大、「-」印の緑ボタンをクリックして縮小、緑色の三角印をクリックして隣りの地図に切り替え


METAR-TAF: